createdAt,value
2023-02-02T00:01:49.700Z,100397.25
2023-02-02T00:04:35.212Z,100393.69
2023-02-02T00:07:05.695Z,100403.16
2023-02-02T00:09:34.144Z,100389.03
2023-02-02T00:12:02.703Z,100395.66
2023-02-02T00:14:30.392Z,100389.84
2023-02-02T00:16:58.905Z,100385.38
2023-02-02T00:19:32.405Z,100376.53
2023-02-02T00:22:00.807Z,100370.81
2023-02-02T00:24:28.934Z,100363.44
2023-02-02T00:26:59.962Z,100373.69
2023-02-02T00:29:31.479Z,100365.00
2023-02-02T00:31:59.421Z,100358.00
2023-02-02T00:34:26.995Z,100345.00
2023-02-02T00:36:54.905Z,100343.00
2023-02-02T00:39:26.374Z,100337.69
2023-02-02T00:41:55.677Z,100329.31
2023-02-02T00:44:41.866Z,100308.13
2023-02-02T00:47:09.786Z,100309.84
2023-02-02T00:49:37.443Z,100302.75
2023-02-02T00:52:05.521Z,100295.19
2023-02-02T00:54:32.963Z,100306.41
2023-02-02T00:57:00.710Z,100304.50
2023-02-02T00:59:28.241Z,100320.94
2023-02-02T01:01:56.128Z,100330.13
2023-02-02T01:04:24.358Z,100330.78
2023-02-02T01:06:52.309Z,100332.50
2023-02-02T01:09:20.066Z,100317.19
2023-02-02T01:11:48.809Z,100320.59
2023-02-02T01:14:16.324Z,100315.28
2023-02-02T01:16:44.258Z,100312.16
2023-02-02T01:19:15.011Z,100312.09
2023-02-02T01:21:43.607Z,100310.44
2023-02-02T01:24:11.042Z,100308.53
2023-02-02T01:26:38.924Z,100297.13
2023-02-02T01:29:06.501Z,100294.59
2023-02-02T01:31:34.451Z,100310.53
2023-02-02T01:34:02.067Z,100295.88
2023-02-02T01:36:31.490Z,100301.50
2023-02-02T01:38:58.965Z,100298.66
2023-02-02T01:41:27.853Z,100302.03
2023-02-02T01:44:07.196Z,100292.00
2023-02-02T01:46:37.210Z,100288.72
2023-02-02T01:49:17.295Z,100280.75
2023-02-02T01:52:00.643Z,100279.56
2023-02-02T01:54:44.578Z,100264.09
2023-02-02T01:57:45.438Z,100270.75
2023-02-02T02:00:16.026Z,100268.22
2023-02-02T02:02:48.998Z,100266.63
2023-02-02T02:05:27.847Z,100262.91
2023-02-02T02:08:15.358Z,100261.88
2023-02-02T02:10:43.358Z,100260.44
2023-02-02T02:13:12.167Z,100246.84
2023-02-02T02:16:20.671Z,100247.97
2023-02-02T02:20:01.688Z,100245.53
2023-02-02T02:23:38.016Z,100247.13
2023-02-02T02:26:30.594Z,100249.59
2023-02-02T02:29:48.985Z,100241.63
2023-02-02T02:32:45.425Z,100248.41
2023-02-02T02:35:41.935Z,100243.75
2023-02-02T02:58:47.589Z,100195.09
2023-02-02T03:01:28.600Z,100200.00
2023-02-02T03:04:03.323Z,100203.13
2023-02-02T03:07:05.875Z,100206.44
2023-02-02T03:09:39.508Z,100210.22
2023-02-02T03:12:07.522Z,100208.63
2023-02-02T03:14:37.096Z,100213.03
2023-02-02T03:17:05.063Z,100220.75
2023-02-02T03:19:32.775Z,100212.09
2023-02-02T03:22:00.692Z,100214.47
2023-02-02T03:24:28.093Z,100205.88
2023-02-02T03:26:55.874Z,100205.72
2023-02-02T03:29:23.544Z,100199.97
2023-02-02T03:31:51.516Z,100207.03
2023-02-02T03:34:18.968Z,100205.16
2023-02-02T03:36:46.773Z,100195.75
2023-02-02T03:39:14.167Z,100187.91
2023-02-02T03:41:41.922Z,100187.44
2023-02-02T03:44:09.416Z,100187.56
2023-02-02T03:46:37.303Z,100173.19
2023-02-02T03:49:04.844Z,100178.50
2023-02-02T03:51:32.625Z,100174.38
2023-02-02T03:54:00.119Z,100175.50
2023-02-02T03:56:27.979Z,100162.63
2023-02-02T03:58:55.548Z,100153.50
2023-02-02T04:01:29.212Z,100155.25
2023-02-02T04:03:58.165Z,100144.28
2023-02-02T04:06:27.000Z,100141.91
2023-02-02T04:08:54.503Z,100138.63
2023-02-02T04:11:22.330Z,100135.16
2023-02-02T04:13:49.870Z,100140.34
2023-02-02T04:16:17.800Z,100138.50
2023-02-02T04:18:45.281Z,100140.03
2023-02-02T04:21:13.052Z,100141.78
2023-02-02T04:23:40.550Z,100145.97
2023-02-02T04:26:08.710Z,100146.41
2023-02-02T04:28:36.767Z,100148.00
2023-02-02T04:31:04.865Z,100144.84
2023-02-02T04:33:34.166Z,100151.44
2023-02-02T04:36:02.065Z,100147.81
2023-02-02T04:38:29.581Z,100150.31
2023-02-02T04:40:57.441Z,100139.81
2023-02-02T04:43:24.936Z,100139.81
2023-02-02T04:45:57.367Z,100136.34
2023-02-02T04:48:25.158Z,100132.28
2023-02-02T04:51:04.679Z,100135.91
2023-02-02T04:53:33.034Z,100136.84
2023-02-02T04:56:17.029Z,100151.88
2023-02-02T04:58:45.864Z,100149.06
2023-02-02T05:01:18.318Z,100158.81
2023-02-02T05:03:47.149Z,100139.88
2023-02-02T05:06:16.432Z,100157.75
2023-02-02T05:08:44.365Z,100152.41
2023-02-02T05:11:15.800Z,100144.72
2023-02-02T05:13:53.273Z,100156.13
2023-02-02T05:16:22.982Z,100154.59
2023-02-02T05:18:56.772Z,100152.56
2023-02-02T05:21:24.791Z,100156.31
2023-02-02T05:23:52.300Z,100152.69
2023-02-02T05:26:24.962Z,100158.50
2023-02-02T05:28:53.096Z,100148.94
2023-02-02T05:31:21.252Z,100148.94
2023-02-02T05:33:48.990Z,100161.31
2023-02-02T05:36:16.762Z,100158.97
2023-02-02T05:38:44.182Z,100149.31
2023-02-02T05:41:12.716Z,100155.41
2023-02-02T05:43:40.728Z,100171.69
2023-02-02T05:46:08.659Z,100163.56
2023-02-02T05:48:36.310Z,100172.19
2023-02-02T05:51:12.437Z,100165.50
2023-02-02T05:53:39.898Z,100172.41
2023-02-02T05:56:07.997Z,100185.75
2023-02-02T05:58:35.609Z,100193.59
2023-02-02T06:01:03.738Z,100185.28
2023-02-02T06:03:31.452Z,100190.63
2023-02-02T06:05:59.380Z,100192.50
2023-02-02T06:08:26.915Z,100195.31
2023-02-02T06:10:54.711Z,100193.78
2023-02-02T06:13:22.907Z,100207.09
2023-02-02T06:15:50.800Z,100224.75
2023-02-02T06:18:18.379Z,100228.41
2023-02-02T06:20:47.040Z,100245.94
2023-02-02T06:23:14.492Z,100253.91
2023-02-02T06:25:42.312Z,100257.97
2023-02-02T06:28:09.864Z,100242.25
2023-02-02T06:30:38.009Z,100243.78
2023-02-02T06:33:07.405Z,100229.81
2023-02-02T06:35:35.294Z,100220.91
2023-02-02T06:38:02.810Z,100211.59
2023-02-02T06:40:30.704Z,100205.31
2023-02-02T06:43:03.152Z,100205.16
2023-02-02T06:45:31.633Z,100201.22
2023-02-02T06:48:08.464Z,100242.72
2023-02-02T06:50:37.442Z,100264.72
2023-02-02T06:53:05.925Z,100314.19
2023-02-02T06:55:33.703Z,100324.47
2023-02-02T06:58:02.237Z,100333.78
2023-02-02T07:00:30.859Z,100327.69
2023-02-02T07:02:58.510Z,100318.06
2023-02-02T07:05:30.558Z,100315.50
2023-02-02T07:07:58.456Z,100316.91
2023-02-02T07:11:13.664Z,100321.44
2023-02-02T07:13:13.755Z,100320.34
2023-02-02T07:15:41.794Z,100326.94
2023-02-02T07:18:09.933Z,100321.16
2023-02-02T07:20:37.763Z,100335.22
2023-02-02T07:23:05.425Z,100339.53
2023-02-02T07:25:33.214Z,100360.72
2023-02-02T07:28:00.788Z,100371.53
2023-02-02T07:30:29.937Z,100362.38
2023-02-02T07:32:57.747Z,100352.72
2023-02-02T07:35:25.886Z,100357.97
2023-02-02T07:37:55.293Z,100365.53
2023-02-02T07:40:23.273Z,100367.88
2023-02-02T07:42:51.087Z,100376.44
2023-02-02T07:45:27.076Z,100388.38
2023-02-02T07:48:00.798Z,100379.53
2023-02-02T07:50:31.043Z,100384.44
2023-02-02T07:52:59.743Z,100386.03
2023-02-02T07:55:28.270Z,100401.97
2023-02-02T07:57:59.044Z,100401.22
2023-02-02T08:00:27.671Z,100408.56
2023-02-02T08:02:55.280Z,100414.31
2023-02-02T08:05:23.583Z,100406.53
2023-02-02T08:07:51.418Z,100396.03
2023-02-02T08:10:19.450Z,100391.34
2023-02-02T08:12:47.332Z,100392.69
2023-02-02T08:15:15.212Z,100393.47
2023-02-02T08:17:46.773Z,100394.88
2023-02-02T08:20:39.344Z,100399.41
2023-02-02T08:24:25.939Z,100397.13
2023-02-02T08:26:57.145Z,100399.41
2023-02-02T08:29:25.187Z,100399.09
2023-02-02T08:31:54.140Z,100404.72
2023-02-02T08:34:21.726Z,100396.84
2023-02-02T08:36:49.706Z,100404.53
2023-02-02T08:39:17.178Z,100394.09
2023-02-02T08:41:45.507Z,100384.03
2023-02-02T08:44:16.050Z,100386.31
2023-02-02T08:46:44.035Z,100381.47
2023-02-02T08:49:12.897Z,100382.16
2023-02-02T08:51:41.909Z,100347.44
2023-02-02T08:54:09.852Z,100343.56
2023-02-02T08:56:37.718Z,100326.75
2023-02-02T08:59:06.052Z,100332.16
2023-02-02T09:01:35.315Z,100338.34
2023-02-02T09:04:14.359Z,100349.78
2023-02-02T09:06:43.222Z,100362.97
2023-02-02T09:09:15.308Z,100378.44
2023-02-02T09:11:45.552Z,100373.22
2023-02-02T09:14:14.733Z,100377.75
2023-02-02T09:16:42.700Z,100394.47
2023-02-02T09:19:11.858Z,100387.00
2023-02-02T09:21:40.600Z,100380.88
2023-02-02T09:24:13.712Z,100383.47
2023-02-02T09:26:44.773Z,100376.94
2023-02-02T09:29:18.110Z,100377.16
2023-02-02T09:31:47.056Z,100375.22
2023-02-02T09:34:15.762Z,100386.13
2023-02-02T09:36:44.605Z,100389.66
2023-02-02T09:39:15.008Z,100378.31
2023-02-02T09:42:07.513Z,100420.09
2023-02-02T09:44:49.616Z,100403.34
2023-02-02T09:47:30.847Z,100404.94
2023-02-02T09:50:04.005Z,100397.16
2023-02-02T09:52:46.173Z,100397.25
2023-02-02T09:55:27.466Z,100400.56
2023-02-02T09:58:32.760Z,100401.88
2023-02-02T10:01:15.710Z,100411.59
2023-02-02T10:03:58.591Z,100420.28
2023-02-02T10:06:50.890Z,100422.22
2023-02-02T10:09:44.683Z,100424.97
2023-02-02T10:12:34.333Z,100402.94
2023-02-02T10:15:35.472Z,100415.34
2023-02-02T10:18:33.359Z,100411.19
2023-02-02T10:21:17.472Z,100411.88
2023-02-02T10:23:45.790Z,100426.28
2023-02-02T10:26:21.531Z,100421.84
2023-02-02T10:29:17.957Z,100418.22
2023-02-02T10:32:22.620Z,100419.19
2023-02-02T10:35:30.005Z,100407.47
2023-02-02T10:38:13.162Z,100422.53
2023-02-02T10:40:40.514Z,100405.09
2023-02-02T10:43:38.743Z,100399.88
2023-02-02T10:46:11.942Z,100402.16
2023-02-02T10:48:41.789Z,100399.22
2023-02-02T10:51:34.843Z,100389.06
2023-02-02T10:54:13.440Z,100364.47
2023-02-02T10:56:52.678Z,100367.72
2023-02-02T10:59:27.535Z,100382.09
2023-02-02T11:01:55.152Z,100383.47
2023-02-02T11:04:41.881Z,100391.63
2023-02-02T11:07:20.072Z,100385.03
2023-02-02T11:09:48.149Z,100382.19
2023-02-02T11:12:32.522Z,100387.41
2023-02-02T11:15:09.143Z,100395.75
2023-02-02T11:17:36.685Z,100369.16
2023-02-02T11:20:32.956Z,100385.94
2023-02-02T11:23:03.725Z,100374.63
2023-02-02T11:25:39.256Z,100379.72
2023-02-02T11:28:21.140Z,100390.47
2023-02-02T11:30:53.245Z,100387.63
2023-02-02T11:33:28.518Z,100392.22
2023-02-02T11:36:22.018Z,100392.72
2023-02-02T11:38:49.434Z,100397.25
2023-02-02T11:41:19.270Z,100393.31
2023-02-02T11:44:06.623Z,100393.22
2023-02-02T11:46:39.032Z,100396.84
2023-02-02T11:49:16.702Z,100392.28
2023-02-02T11:51:55.672Z,100388.25
2023-02-02T11:54:33.181Z,100383.97
2023-02-02T11:57:07.245Z,100394.00
2023-02-02T11:59:44.010Z,100385.91
2023-02-02T12:02:20.837Z,100400.13
2023-02-02T12:04:52.006Z,100386.75
2023-02-02T12:07:32.068Z,100378.25
2023-02-02T12:10:13.576Z,100370.69
2023-02-02T12:13:12.253Z,100370.88
2023-02-02T12:16:09.741Z,100362.88
2023-02-02T12:18:58.435Z,100385.31
2023-02-02T12:22:22.089Z,100368.97
2023-02-02T12:25:14.225Z,100372.34
2023-02-02T12:27:56.703Z,100395.22
2023-02-02T12:30:43.905Z,100366.25
2023-02-02T12:33:43.502Z,100375.16
2023-02-02T12:36:20.180Z,100370.09
2023-02-02T12:39:32.525Z,100361.22
2023-02-02T12:42:30.377Z,100364.03
2023-02-02T12:45:21.720Z,100389.31
2023-02-02T12:48:46.571Z,100370.41
2023-02-02T12:51:38.897Z,100383.75
2023-02-02T12:54:34.933Z,100375.63
2023-02-02T12:57:36.359Z,100374.91
2023-02-02T13:01:01.648Z,100373.72
2023-02-02T13:04:13.761Z,100376.22
2023-02-02T13:07:15.010Z,100382.66
2023-02-02T13:10:00.015Z,100388.59
2023-02-02T13:12:32.644Z,100397.72
2023-02-02T13:15:27.454Z,100391.56
2023-02-02T13:17:59.692Z,100389.13
2023-02-02T13:20:45.912Z,100389.06
2023-02-02T13:23:20.255Z,100418.91
2023-02-02T13:26:35.351Z,100400.63
2023-02-02T13:29:25.107Z,100399.63
2023-02-02T13:32:01.185Z,100411.50
2023-02-02T13:34:49.669Z,100397.81
2023-02-02T13:37:39.399Z,100398.19
2023-02-02T13:40:41.624Z,100405.13
2023-02-02T13:43:30.764Z,100395.91
2023-02-02T13:46:23.718Z,100399.16
2023-02-02T13:49:18.134Z,100400.44
2023-02-02T13:51:59.518Z,100407.50
2023-02-02T13:55:07.065Z,100408.66
2023-02-02T13:57:46.555Z,100400.50
2023-02-02T14:00:56.851Z,100411.22
2023-02-02T14:03:43.706Z,100396.53
2023-02-02T14:06:12.760Z,100394.38
2023-02-02T14:08:53.346Z,100404.31
2023-02-02T14:11:42.451Z,100423.19
2023-02-02T14:14:31.919Z,100417.38
2023-02-02T14:17:14.323Z,100419.88
2023-02-02T14:19:54.537Z,100421.94
2023-02-02T14:22:44.833Z,100424.75
2023-02-02T14:25:33.795Z,100414.97
2023-02-02T14:28:11.466Z,100426.88
2023-02-02T14:30:40.101Z,100420.06
2023-02-02T14:33:47.356Z,100412.38
2023-02-02T14:36:16.977Z,100406.03
2023-02-02T14:39:16.659Z,100407.75
2023-02-02T14:42:29.819Z,100409.09
2023-02-02T14:45:10.434Z,100407.81
2023-02-02T14:47:48.476Z,100421.94
2023-02-02T14:50:32.873Z,100418.38
2023-02-02T14:53:14.957Z,100410.69
2023-02-02T14:56:10.675Z,100407.84
2023-02-02T14:58:47.258Z,100404.56
2023-02-02T15:01:17.547Z,100418.25
2023-02-02T15:03:57.378Z,100420.19
2023-02-02T15:06:24.634Z,100430.34
2023-02-02T15:09:20.343Z,100436.66
2023-02-02T15:12:02.152Z,100428.25
2023-02-02T15:14:45.621Z,100432.88
2023-02-02T15:17:31.267Z,100444.16
2023-02-02T15:20:14.466Z,100429.78
2023-02-02T15:22:55.472Z,100423.16
2023-02-02T15:25:34.605Z,100446.53
2023-02-02T15:28:20.198Z,100445.09
2023-02-02T15:30:59.431Z,100434.78
2023-02-02T15:33:42.194Z,100428.00
2023-02-02T15:36:48.855Z,100432.66
2023-02-02T15:39:46.079Z,100430.66
2023-02-02T15:42:55.027Z,100438.16
2023-02-02T15:45:43.534Z,100435.13
2023-02-02T15:48:30.038Z,100445.66
2023-02-02T15:51:17.827Z,100463.97
2023-02-02T15:53:51.765Z,100452.13
2023-02-02T15:56:25.059Z,100448.50
2023-02-02T15:58:56.627Z,100469.03
2023-02-02T16:01:25.838Z,100460.41
2023-02-02T16:04:11.766Z,100458.84
2023-02-02T16:06:39.492Z,100469.88
2023-02-02T16:09:08.474Z,100462.97
2023-02-02T16:11:42.380Z,100471.06
2023-02-02T16:14:17.754Z,100463.88
2023-02-02T16:16:47.586Z,100459.03
2023-02-02T16:19:20.689Z,100473.25
2023-02-02T16:22:06.529Z,100470.94
2023-02-02T16:24:40.954Z,100485.38
2023-02-02T16:27:17.738Z,100481.81
2023-02-02T16:29:46.151Z,100479.16
2023-02-02T16:32:33.395Z,100473.84
2023-02-02T16:35:06.382Z,100494.63
2023-02-02T16:37:36.521Z,100488.63
2023-02-02T16:40:29.753Z,100495.13
2023-02-02T16:43:16.663Z,100496.44
2023-02-02T16:46:16.504Z,100501.06
2023-02-02T16:48:45.245Z,100491.19
2023-02-02T16:51:16.109Z,100527.16
2023-02-02T16:54:00.539Z,100525.09
2023-02-02T16:57:00.479Z,100522.94
2023-02-02T16:59:35.084Z,100518.19
2023-02-02T17:02:35.556Z,100510.69
2023-02-02T17:05:06.169Z,100533.56
2023-02-02T17:07:35.795Z,100522.75
2023-02-02T17:10:17.525Z,100523.53
2023-02-02T17:12:46.273Z,100518.59
2023-02-02T17:15:19.437Z,100529.22
2023-02-02T17:17:49.566Z,100533.75
2023-02-02T17:20:18.534Z,100526.66
2023-02-02T17:22:57.055Z,100520.06
2023-02-02T17:25:43.077Z,100535.56
2023-02-02T17:28:14.618Z,100521.75
2023-02-02T17:30:45.656Z,100529.81
2023-02-02T17:33:16.118Z,100539.66
2023-02-02T17:35:54.233Z,100528.81
2023-02-02T17:38:25.665Z,100541.75
2023-02-02T17:40:54.884Z,100523.88
2023-02-02T17:43:22.873Z,100535.81
2023-02-02T17:45:50.643Z,100533.16
2023-02-02T17:48:18.512Z,100536.91
2023-02-02T17:50:46.289Z,100533.47
2023-02-02T17:53:21.275Z,100533.38
2023-02-02T17:55:52.033Z,100538.88
2023-02-02T17:58:19.885Z,100533.97
2023-02-02T18:00:56.326Z,100539.28
2023-02-02T18:03:28.689Z,100534.53
2023-02-02T18:06:02.687Z,100538.69
2023-02-02T18:08:32.704Z,100540.47
2023-02-02T18:11:00.591Z,100543.53
2023-02-02T18:13:28.948Z,100545.56
2023-02-02T18:15:56.489Z,100534.34
2023-02-02T18:18:24.480Z,100533.75
2023-02-02T18:20:51.951Z,100535.31
2023-02-02T18:23:19.895Z,100533.56
2023-02-02T18:25:47.345Z,100521.94
2023-02-02T18:28:17.806Z,100526.06
2023-02-02T18:30:47.246Z,100536.22
2023-02-02T18:33:19.650Z,100523.41
2023-02-02T18:35:48.166Z,100532.78
2023-02-02T18:38:16.267Z,100532.28
2023-02-02T18:40:43.800Z,100540.03
2023-02-02T18:43:11.620Z,100542.59
2023-02-02T18:45:39.166Z,100536.28
2023-02-02T18:48:06.931Z,100540.47
2023-02-02T18:50:34.314Z,100538.66
2023-02-02T18:53:01.991Z,100537.91
2023-02-02T18:55:29.779Z,100539.84
2023-02-02T18:57:58.132Z,100542.22
2023-02-02T19:00:25.846Z,100534.50
2023-02-02T19:02:53.644Z,100546.56
2023-02-02T19:05:39.450Z,100543.81
2023-02-02T19:08:07.239Z,100541.34
2023-02-02T19:10:34.608Z,100549.25
2023-02-02T19:13:10.617Z,100550.09
2023-02-02T19:15:40.874Z,100560.38
2023-02-02T19:18:22.574Z,100551.31
2023-02-02T19:20:53.145Z,100560.97
2023-02-02T19:23:23.999Z,100561.16
2023-02-02T19:25:56.745Z,100566.78
2023-02-02T19:28:31.183Z,100562.16
2023-02-02T19:31:01.910Z,100565.09
2023-02-02T19:33:45.159Z,100560.25
2023-02-02T19:36:27.789Z,100568.81
2023-02-02T19:39:21.887Z,100570.13
2023-02-02T19:41:50.494Z,100578.09
2023-02-02T19:44:21.540Z,100577.69
2023-02-02T19:46:52.313Z,100581.84
2023-02-02T19:49:36.182Z,100585.00
2023-02-02T19:52:19.592Z,100589.66
2023-02-02T19:54:49.017Z,100583.34
2023-02-02T19:57:40.807Z,100594.47
2023-02-02T20:00:30.229Z,100612.63
2023-02-02T20:03:10.674Z,100600.97
2023-02-02T20:05:47.067Z,100610.94
2023-02-02T20:08:30.059Z,100627.41
2023-02-02T20:11:15.827Z,100620.91
2023-02-02T20:13:48.687Z,100623.38
2023-02-02T20:16:23.802Z,100627.19
2023-02-02T20:18:55.345Z,100639.44
2023-02-02T20:21:41.288Z,100638.03
2023-02-02T20:24:23.363Z,100647.44
2023-02-02T20:26:54.292Z,100642.34
2023-02-02T20:29:28.209Z,100640.19
2023-02-02T20:31:59.175Z,100651.03
2023-02-02T20:34:35.309Z,100629.94
2023-02-02T20:37:29.401Z,100641.75
2023-02-02T20:40:28.475Z,100655.34
2023-02-02T20:42:58.297Z,100655.06
2023-02-02T20:45:26.523Z,100652.00
2023-02-02T20:47:54.552Z,100653.59
2023-02-02T20:50:23.780Z,100648.16
2023-02-02T20:52:54.171Z,100650.44
2023-02-02T20:55:30.569Z,100658.63
2023-02-02T20:58:33.366Z,100656.16
2023-02-02T21:01:05.399Z,100666.38
2023-02-02T21:03:33.497Z,100662.72
2023-02-02T21:06:01.208Z,100677.69
2023-02-02T21:08:29.930Z,100687.84
2023-02-02T21:14:47.748Z,100676.09
2023-02-02T21:17:16.316Z,100681.00
2023-02-02T21:19:44.706Z,100679.22
2023-02-02T21:22:13.278Z,100686.81
2023-02-02T21:24:41.304Z,100685.34
2023-02-02T21:27:09.485Z,100709.03
2023-02-02T21:29:37.388Z,100690.28
2023-02-02T21:32:05.581Z,100694.16
2023-02-02T21:34:33.381Z,100693.00
2023-02-02T21:37:01.674Z,100705.00
2023-02-02T21:39:35.220Z,100702.06
2023-02-02T21:42:09.096Z,100714.25
2023-02-02T21:44:52.463Z,100715.44
2023-02-02T21:47:37.309Z,100719.28
2023-02-02T21:50:14.752Z,100725.31
2023-02-02T21:52:42.850Z,100722.84
2023-02-02T21:55:36.148Z,100726.38
2023-02-02T21:58:38.518Z,100739.88
2023-02-02T22:01:38.204Z,100732.53
2023-02-02T22:04:29.576Z,100737.25
2023-02-02T22:07:10.976Z,100752.78
2023-02-02T22:09:42.798Z,100751.75
2023-02-02T22:12:32.566Z,100763.09
2023-02-02T22:15:03.628Z,100751.66
2023-02-02T22:17:41.931Z,100740.03
2023-02-02T22:20:15.144Z,100756.63
2023-02-02T22:22:46.774Z,100760.94
2023-02-02T22:25:16.989Z,100755.75
2023-02-02T22:28:01.493Z,100755.28
2023-02-02T22:30:41.446Z,100771.81
2023-02-02T22:33:12.232Z,100761.34
2023-02-02T22:35:41.898Z,100759.69
2023-02-02T22:38:11.240Z,100753.25
2023-02-02T22:40:38.949Z,100765.31
2023-02-02T22:43:07.897Z,100798.84
2023-02-02T22:45:35.810Z,100780.53
2023-02-02T22:48:03.573Z,100785.78
2023-02-02T22:50:34.211Z,100789.66
2023-02-02T22:53:03.237Z,100774.47
2023-02-02T22:55:32.382Z,100784.34
2023-02-02T22:58:00.223Z,100789.31
2023-02-02T23:00:32.265Z,100780.28
2023-02-02T23:02:59.935Z,100769.78
2023-02-02T23:05:28.750Z,100777.25
2023-02-02T23:07:56.639Z,100785.00
2023-02-02T23:10:27.864Z,100779.47
2023-02-02T23:12:58.569Z,100783.22
2023-02-02T23:15:27.393Z,100787.13
2023-02-02T23:17:55.320Z,100797.69
2023-02-02T23:20:23.876Z,100808.09
2023-02-02T23:22:51.711Z,100805.59
2023-02-02T23:25:19.716Z,100803.16
2023-02-02T23:27:47.162Z,100815.66
2023-02-02T23:30:15.688Z,100813.00
2023-02-02T23:32:43.335Z,100827.28
2023-02-02T23:35:11.302Z,100816.88
2023-02-02T23:37:39.416Z,100825.06
2023-02-02T23:40:08.503Z,100830.09
2023-02-02T23:42:35.959Z,100832.03
2023-02-02T23:45:04.252Z,100836.78
2023-02-02T23:47:34.519Z,100848.84
2023-02-02T23:50:05.936Z,100839.59
2023-02-02T23:52:35.409Z,100856.50
2023-02-02T23:55:04.857Z,100855.97
2023-02-02T23:57:33.857Z,100864.44
